Time,TemperatureF,DewpointF,PressureIn,WindDirection,WindDirectionDegrees,WindSpeedMPH,WindSpeedGustMPH,Humidity,HourlyPrecipIn,Conditions,Clouds,dailyrainin,SoftwareType,DateUTC
2013-03-04 00:00:00,18.3,8.8,30.09,North,0,0.0,0.0,54,0.00,NA,NA,0.00,meteo_script,2013-03-04 06:00:00,
2013-03-04 00:30:00,18.5,9.0,30.10,North,0,0.0,0.0,54,0.00,NA,NA,0.00,meteo_script,2013-03-04 06:30:00,
2013-03-04 01:00:00,18.5,9.2,30.11,North,0,0.0,0.0,55,0.00,NA,NA,0.00,meteo_script,2013-03-04 07:00:00,
2013-03-04 01:30:00,18.4,8.6,30.12,North,0,0.0,0.0,53,0.00,NA,NA,0.00,meteo_script,2013-03-04 07:30:00,
2013-03-04 02:00:00,18.3,8.5,30.11,North,0,0.0,0.0,53,0.00,NA,NA,0.00,meteo_script,2013-03-04 08:00:00,
2013-03-04 02:30:00,18.3,8.8,30.11,North,0,0.0,0.0,54,0.00,NA,NA,0.00,meteo_script,2013-03-04 08:30:00,
2013-03-04 03:00:00,18.0,8.5,30.10,SE,128,0.6,2.0,54,0.00,NA,NA,0.00,meteo_script,2013-03-04 09:00:00,
2013-03-04 03:30:00,17.2,8.2,30.09,SE,128,1.0,2.0,55,0.00,NA,NA,0.00,meteo_script,2013-03-04 09:30:00,
2013-03-04 04:00:00,16.7,8.1,30.09,SE,126,0.8,2.0,57,0.00,NA,NA,0.00,meteo_script,2013-03-04 10:00:00,
2013-03-04 04:30:00,16.8,8.5,30.09,North,0,0.0,0.0,58,0.00,NA,NA,0.00,meteo_script,2013-03-04 10:30:00,
2013-03-04 05:00:00,17.1,9.3,30.09,ESE,109,0.2,1.0,60,0.00,NA,NA,0.00,meteo_script,2013-03-04 11:00:00,
2013-03-04 05:30:00,17.3,9.5,30.09,East,93,0.5,2.0,60,0.00,NA,NA,0.00,meteo_script,2013-03-04 11:30:00,
2013-03-04 06:00:00,17.4,9.8,30.09,East,93,0.4,2.0,61,0.00,NA,NA,0.00,meteo_script,2013-03-04 12:00:00,
2013-03-04 06:30:00,17.6,10.1,30.09,East,90,0.1,1.0,61,0.00,NA,NA,0.00,meteo_script,2013-03-04 12:30:00,
2013-03-04 07:00:00,18.2,10.8,30.09,East,86,1.5,3.0,62,0.00,NA,NA,0.00,meteo_script,2013-03-04 13:00:00,
2013-03-04 07:30:00,19.7,12.2,30.10,ENE,63,1.4,3.0,62,0.00,NA,NA,0.00,meteo_script,2013-03-04 13:30:00,
2013-03-04 08:00:00,21.9,13.7,30.09,East,80,1.6,3.0,59,0.00,NA,NA,0.00,meteo_script,2013-03-04 14:00:00,
2013-03-04 08:30:00,24.7,15.6,30.09,ESE,107,2.3,4.0,57,0.00,NA,NA,0.00,meteo_script,2013-03-04 14:30:00,
2013-03-04 09:00:00,27.3,17.4,30.09,East,81,2.3,4.0,55,0.00,NA,NA,0.00,meteo_script,2013-03-04 15:00:00,
2013-03-04 09:30:00,29.2,18.7,30.08,ENE,77,0.1,1.0,53,0.00,NA,NA,0.00,meteo_script,2013-03-04 15:30:00,
2013-03-04 10:00:00,29.2,18.3,30.09,ESE,102,1.5,3.0,52,0.00,NA,NA,0.00,meteo_script,2013-03-04 16:00:00,
2013-03-04 10:30:00,29.8,19.1,30.08,ESE,122,2.8,6.0,52,0.00,NA,NA,0.00,meteo_script,2013-03-04 16:30:00,
2013-03-04 11:00:00,31.0,19.7,30.08,East,87,2.5,4.0,51,0.00,NA,NA,0.00,meteo_script,2013-03-04 17:00:00,
2013-03-04 11:30:00,33.6,21.2,30.08,East,86,1.9,5.0,48,0.00,NA,NA,0.00,meteo_script,2013-03-04 17:30:00,
2013-03-04 12:00:00,34.8,22.4,30.07,East,101,0.9,3.0,49,0.00,NA,NA,0.00,meteo_script,2013-03-04 18:00:00,
2013-03-04 12:30:00,35.4,22.7,30.06,East,101,2.4,4.0,48,0.00,NA,NA,0.00,meteo_script,2013-03-04 18:30:00,
2013-03-04 13:00:00,35.1,22.7,30.05,ESE,106,1.9,4.0,49,0.00,NA,NA,0.00,meteo_script,2013-03-04 19:00:00,
2013-03-04 13:30:00,35.8,23.1,30.04,ESE,122,2.3,4.0,48,0.00,NA,NA,0.00,meteo_script,2013-03-04 19:30:00,
2013-03-04 14:00:00,36.0,23.6,30.03,East,101,2.5,4.0,49,0.00,NA,NA,0.00,meteo_script,2013-03-04 20:00:00,
2013-03-04 14:30:00,37.3,24.7,30.03,East,101,2.9,8.0,48,0.00,NA,NA,0.00,meteo_script,2013-03-04 20:30:00,
2013-03-04 15:00:00,37.6,24.3,30.02,East,85,3.1,5.0,47,0.00,NA,NA,0.00,meteo_script,2013-03-04 21:00:00,
2013-03-04 15:30:00,36.5,24.3,30.01,East,84,2.0,5.0,49,0.00,NA,NA,0.00,meteo_script,2013-03-04 21:30:00,
2013-03-04 16:00:00,35.2,23.3,30.01,East,91,2.0,4.0,50,0.00,NA,NA,0.00,meteo_script,2013-03-04 22:00:00,
2013-03-04 16:30:00,34.3,22.7,30.01,East,85,4.2,10.0,51,0.00,NA,NA,0.00,meteo_script,2013-03-04 22:30:00,
2013-03-04 17:00:00,33.1,22.2,30.00,East,87,1.7,4.0,53,0.00,NA,NA,0.00,meteo_script,2013-03-04 23:00:00,
2013-03-04 17:30:00,32.1,22.5,30.01,East,94,3.5,6.0,57,0.00,NA,NA,0.00,meteo_script,2013-03-04 23:30:00,
2013-03-04 18:00:00,31.1,22.1,30.01,ENE,65,2.5,6.0,59,0.00,NA,NA,0.00,meteo_script,2013-03-05 00:00:00,
2013-03-04 18:30:00,30.6,22.2,30.02,ENE,74,2.2,3.0,61,0.00,NA,NA,0.00,meteo_script,2013-03-05 00:30:00,
2013-03-04 19:00:00,30.2,23.3,30.04,ENE,61,3.5,8.0,66,0.00,NA,NA,0.00,meteo_script,2013-03-05 01:00:00,
2013-03-04 19:30:00,29.6,23.1,30.04,East,79,2.1,3.0,68,0.00,NA,NA,0.00,meteo_script,2013-03-05 01:30:00,
2013-03-04 20:00:00,29.2,22.4,30.05,ENE,61,0.8,4.0,67,0.00,NA,NA,0.00,meteo_script,2013-03-05 02:00:00,
2013-03-04 20:30:00,29.1,22.3,30.05,ENE,70,2.5,6.0,67,0.00,NA,NA,0.00,meteo_script,2013-03-05 02:30:00,
2013-03-04 21:00:00,28.7,21.8,30.06,NE,46,0.1,1.0,66,0.00,NA,NA,0.00,meteo_script,2013-03-05 03:00:00,
2013-03-04 21:30:00,28.5,21.5,30.05,East,79,3.1,5.0,66,0.00,NA,NA,0.00,meteo_script,2013-03-05 03:30:00,
2013-03-04 22:00:00,28.4,21.7,30.05,East,89,2.3,5.0,67,0.00,NA,NA,0.00,meteo_script,2013-03-05 04:00:00,
2013-03-04 22:30:00,28.2,21.5,30.04,ENE,72,2.4,7.0,67,0.00,NA,NA,0.00,meteo_script,2013-03-05 04:30:00,
2013-03-04 23:00:00,28.3,21.8,30.05,ENE,63,0.3,2.0,68,0.00,NA,NA,0.00,meteo_script,2013-03-05 05:00:00,
2013-03-04 23:30:00,28.3,21.9,30.04,NE,56,0.6,2.0,68,0.00,NA,NA,0.00,meteo_script,2013-03-05 05:30:00,